sensor_id;sensor_type;location;lat;lon;timestamp;temperature;humidity
24146;DHT22;12308;50.948;4.706;2022-12-11T00:02:12;3.40;99.90
24146;DHT22;12308;50.948;4.706;2022-12-11T00:04:38;3.30;99.90
24146;DHT22;12308;50.948;4.706;2022-12-11T00:07:03;3.40;99.90
24146;DHT22;12308;50.948;4.706;2022-12-11T00:09:29;3.30;99.90
24146;DHT22;12308;50.948;4.706;2022-12-11T00:11:55;3.30;99.90
24146;DHT22;12308;50.948;4.706;2022-12-11T00:14:21;3.30;99.90
24146;DHT22;12308;50.948;4.706;2022-12-11T00:16:47;3.30;99.90
24146;DHT22;12308;50.948;4.706;2022-12-11T00:19:14;3.30;99.90
24146;DHT22;12308;50.948;4.706;2022-12-11T00:21:40;3.40;99.90
24146;DHT22;12308;50.948;4.706;2022-12-11T00:24:05;3.30;99.90
24146;DHT22;12308;50.948;4.706;2022-12-11T00:26:31;3.40;99.90
24146;DHT22;12308;50.948;4.706;2022-12-11T00:28:57;3.40;99.90
24146;DHT22;12308;50.948;4.706;2022-12-11T00:31:22;3.30;99.90
24146;DHT22;12308;50.948;4.706;2022-12-11T00:33:49;3.20;99.90
24146;DHT22;12308;50.948;4.706;2022-12-11T00:36:25;3.00;99.90
24146;DHT22;12308;50.948;4.706;2022-12-11T00:38:51;3.00;99.90
24146;DHT22;12308;50.948;4.706;2022-12-11T00:41:18;3.10;99.90
24146;DHT22;12308;50.948;4.706;2022-12-11T00:43:44;3.30;99.90
24146;DHT22;12308;50.948;4.706;2022-12-11T00:46:10;3.30;99.90
24146;DHT22;12308;50.948;4.706;2022-12-11T00:48:36;3.30;99.90
24146;DHT22;12308;50.948;4.706;2022-12-11T00:51:02;3.40;99.90
24146;DHT22;12308;50.948;4.706;2022-12-11T00:53:27;3.50;99.90
24146;DHT22;12308;50.948;4.706;2022-12-11T00:55:53;3.50;99.90
24146;DHT22;12308;50.948;4.706;2022-12-11T00:58:20;3.50;99.90
24146;DHT22;12308;50.948;4.706;2022-12-11T01:00:46;3.50;99.90
24146;DHT22;12308;50.948;4.706;2022-12-11T01:03:13;3.40;99.90
24146;DHT22;12308;50.948;4.706;2022-12-11T01:05:39;3.40;99.90
24146;DHT22;12308;50.948;4.706;2022-12-11T01:08:05;3.20;99.90
24146;DHT22;12308;50.948;4.706;2022-12-11T01:10:31;3.30;99.90
24146;DHT22;12308;50.948;4.706;2022-12-11T01:13:05;3.20;99.90
24146;DHT22;12308;50.948;4.706;2022-12-11T01:15:37;3.50;99.90
24146;DHT22;12308;50.948;4.706;2022-12-11T01:18:03;3.50;99.90
24146;DHT22;12308;50.948;4.706;2022-12-11T01:20:29;3.50;99.90
24146;DHT22;12308;50.948;4.706;2022-12-11T01:22:57;3.60;99.90
24146;DHT22;12308;50.948;4.706;2022-12-11T01:25:24;3.70;99.90
24146;DHT22;12308;50.948;4.706;2022-12-11T01:27:50;3.70;99.90
24146;DHT22;12308;50.948;4.706;2022-12-11T01:30:17;3.70;99.90
24146;DHT22;12308;50.948;4.706;2022-12-11T01:32:43;3.60;99.90
24146;DHT22;12308;50.948;4.706;2022-12-11T01:35:10;3.60;99.90
24146;DHT22;12308;50.948;4.706;2022-12-11T01:37:36;3.80;99.90
24146;DHT22;12308;50.948;4.706;2022-12-11T01:40:03;3.70;99.90
24146;DHT22;12308;50.948;4.706;2022-12-11T01:42:29;3.70;99.90
24146;DHT22;12308;50.948;4.706;2022-12-11T01:47:39;3.70;99.90
24146;DHT22;12308;50.948;4.706;2022-12-11T01:50:05;3.80;99.90
24146;DHT22;12308;50.948;4.706;2022-12-11T01:52:31;3.80;99.90
24146;DHT22;12308;50.948;4.706;2022-12-11T01:54:57;3.90;99.90
24146;DHT22;12308;50.948;4.706;2022-12-11T01:57:22;3.80;99.90
24146;DHT22;12308;50.948;4.706;2022-12-11T01:59:48;3.80;99.90
24146;DHT22;12308;50.948;4.706;2022-12-11T02:02:20;3.90;99.90
24146;DHT22;12308;50.948;4.706;2022-12-11T02:04:47;4.00;99.90
24146;DHT22;12308;50.948;4.706;2022-12-11T02:07:14;4.00;99.90
24146;DHT22;12308;50.948;4.706;2022-12-11T02:09:41;4.10;99.90
24146;DHT22;12308;50.948;4.706;2022-12-11T02:12:35;4.20;99.90
24146;DHT22;12308;50.948;4.706;2022-12-11T02:20:14;4.20;99.90
24146;DHT22;12308;50.948;4.706;2022-12-11T02:31:08;3.90;99.90
24146;DHT22;12308;50.948;4.706;2022-12-11T02:33:45;4.00;99.90
24146;DHT22;12308;50.948;4.706;2022-12-11T02:36:15;4.10;99.90
24146;DHT22;12308;50.948;4.706;2022-12-11T02:38:45;4.10;99.90
24146;DHT22;12308;50.948;4.706;2022-12-11T02:41:16;4.20;99.90
24146;DHT22;12308;50.948;4.706;2022-12-11T02:43:44;4.10;99.90
24146;DHT22;12308;50.948;4.706;2022-12-11T02:46:11;4.10;99.90
24146;DHT22;12308;50.948;4.706;2022-12-11T02:48:39;4.00;99.90
24146;DHT22;12308;50.948;4.706;2022-12-11T02:51:07;4.10;99.90
24146;DHT22;12308;50.948;4.706;2022-12-11T02:53:36;4.00;99.90
24146;DHT22;12308;50.948;4.706;2022-12-11T02:56:17;4.20;99.90
24146;DHT22;12308;50.948;4.706;2022-12-11T02:58:52;4.20;99.90
24146;DHT22;12308;50.948;4.706;2022-12-11T03:01:19;4.20;99.90
24146;DHT22;12308;50.948;4.706;2022-12-11T03:03:44;4.30;99.90
24146;DHT22;12308;50.948;4.706;2022-12-11T03:06:13;4.30;99.90
24146;DHT22;12308;50.948;4.706;2022-12-11T03:08:40;4.30;99.90
24146;DHT22;12308;50.948;4.706;2022-12-11T03:11:10;4.30;99.90
24146;DHT22;12308;50.948;4.706;2022-12-11T03:13:37;4.30;99.90
24146;DHT22;12308;50.948;4.706;2022-12-11T03:18:54;4.20;99.90
24146;DHT22;12308;50.948;4.706;2022-12-11T03:21:45;4.30;99.90
24146;DHT22;12308;50.948;4.706;2022-12-11T03:26:42;4.20;99.90
24146;DHT22;12308;50.948;4.706;2022-12-11T03:29:35;4.30;99.90
24146;DHT22;12308;50.948;4.706;2022-12-11T03:32:10;4.20;99.90
24146;DHT22;12308;50.948;4.706;2022-12-11T03:34:44;4.30;99.90
24146;DHT22;12308;50.948;4.706;2022-12-11T03:37:12;4.30;99.90
24146;DHT22;12308;50.948;4.706;2022-12-11T03:39:42;4.30;99.90
24146;DHT22;12308;50.948;4.706;2022-12-11T03:42:11;4.20;99.90
24146;DHT22;12308;50.948;4.706;2022-12-11T03:44:37;4.20;99.90
24146;DHT22;12308;50.948;4.706;2022-12-11T03:47:06;4.20;99.90
24146;DHT22;12308;50.948;4.706;2022-12-11T03:49:36;4.20;99.90
24146;DHT22;12308;50.948;4.706;2022-12-11T03:52:04;4.30;99.90
24146;DHT22;12308;50.948;4.706;2022-12-11T03:54:30;4.20;99.90
24146;DHT22;12308;50.948;4.706;2022-12-11T03:56:58;4.20;99.90
24146;DHT22;12308;50.948;4.706;2022-12-11T03:59:25;4.20;99.90
24146;DHT22;12308;50.948;4.706;2022-12-11T04:01:51;4.30;99.90
24146;DHT22;12308;50.948;4.706;2022-12-11T04:04:16;4.20;99.90
24146;DHT22;12308;50.948;4.706;2022-12-11T04:06:42;4.20;99.90
24146;DHT22;12308;50.948;4.706;2022-12-11T04:09:08;4.30;99.90
24146;DHT22;12308;50.948;4.706;2022-12-11T04:11:33;4.30;99.90
24146;DHT22;12308;50.948;4.706;2022-12-11T04:14:10;4.30;99.90
24146;DHT22;12308;50.948;4.706;2022-12-11T04:16:55;4.30;99.90
24146;DHT22;12308;50.948;4.706;2022-12-11T04:19:21;4.20;99.90
24146;DHT22;12308;50.948;4.706;2022-12-11T04:22:06;4.20;99.90
24146;DHT22;12308;50.948;4.706;2022-12-11T04:24:51;4.20;99.90
24146;DHT22;12308;50.948;4.706;2022-12-11T04:27:18;4.40;99.90
24146;DHT22;12308;50.948;4.706;2022-12-11T04:30:05;4.20;99.90
24146;DHT22;12308;50.948;4.706;2022-12-11T04:32:31;4.10;99.90
24146;DHT22;12308;50.948;4.706;2022-12-11T04:34:57;4.10;99.90
24146;DHT22;12308;50.948;4.706;2022-12-11T04:37:23;4.10;99.90
24146;DHT22;12308;50.948;4.706;2022-12-11T04:39:48;4.10;99.90
24146;DHT22;12308;50.948;4.706;2022-12-11T04:42:14;4.20;99.90
24146;DHT22;12308;50.948;4.706;2022-12-11T04:44:40;4.20;99.90
24146;DHT22;12308;50.948;4.706;2022-12-11T04:47:05;4.30;99.90
24146;DHT22;12308;50.948;4.706;2022-12-11T04:49:31;4.30;99.90
24146;DHT22;12308;50.948;4.706;2022-12-11T04:51:57;4.30;99.90
24146;DHT22;12308;50.948;4.706;2022-12-11T04:54:22;4.30;99.90
24146;DHT22;12308;50.948;4.706;2022-12-11T04:56:48;4.40;99.90
24146;DHT22;12308;50.948;4.706;2022-12-11T04:59:13;4.40;99.90
24146;DHT22;12308;50.948;4.706;2022-12-11T05:01:39;4.40;99.90
24146;DHT22;12308;50.948;4.706;2022-12-11T05:04:05;4.20;99.90
24146;DHT22;12308;50.948;4.706;2022-12-11T05:06:31;4.20;99.90
24146;DHT22;12308;50.948;4.706;2022-12-11T05:08:56;4.20;99.90
24146;DHT22;12308;50.948;4.706;2022-12-11T05:11:22;4.20;99.90
24146;DHT22;12308;50.948;4.706;2022-12-11T05:13:48;4.20;99.90
24146;DHT22;12308;50.948;4.706;2022-12-11T05:16:15;4.40;99.90
24146;DHT22;12308;50.948;4.706;2022-12-11T05:18:41;4.20;99.90
24146;DHT22;12308;50.948;4.706;2022-12-11T05:21:09;4.20;99.90
24146;DHT22;12308;50.948;4.706;2022-12-11T05:23:36;4.20;99.90
24146;DHT22;12308;50.948;4.706;2022-12-11T05:26:07;4.20;99.90
24146;DHT22;12308;50.948;4.706;2022-12-11T05:28:35;4.20;99.90
24146;DHT22;12308;50.948;4.706;2022-12-11T05:31:07;4.10;99.90
24146;DHT22;12308;50.948;4.706;2022-12-11T05:33:34;4.00;99.90
24146;DHT22;12308;50.948;4.706;2022-12-11T05:36:00;4.10;99.90
24146;DHT22;12308;50.948;4.706;2022-12-11T05:38:25;4.20;99.90
24146;DHT22;12308;50.948;4.706;2022-12-11T05:40:59;4.00;99.90
24146;DHT22;12308;50.948;4.706;2022-12-11T05:43:27;4.00;99.90
24146;DHT22;12308;50.948;4.706;2022-12-11T05:45:54;4.10;99.90
24146;DHT22;12308;50.948;4.706;2022-12-11T05:48:20;4.20;99.90
24146;DHT22;12308;50.948;4.706;2022-12-11T05:50:59;4.20;99.90
24146;DHT22;12308;50.948;4.706;2022-12-11T05:53:26;4.10;99.90
24146;DHT22;12308;50.948;4.706;2022-12-11T05:55:51;4.00;99.90
24146;DHT22;12308;50.948;4.706;2022-12-11T05:58:18;4.00;99.90
24146;DHT22;12308;50.948;4.706;2022-12-11T06:00:43;4.10;99.90
24146;DHT22;12308;50.948;4.706;2022-12-11T06:03:09;4.10;99.90
24146;DHT22;12308;50.948;4.706;2022-12-11T06:05:39;4.20;99.90
24146;DHT22;12308;50.948;4.706;2022-12-11T06:08:05;4.30;99.90
24146;DHT22;12308;50.948;4.706;2022-12-11T06:10:30;4.30;99.90
24146;DHT22;12308;50.948;4.706;2022-12-11T06:12:56;4.20;99.90
24146;DHT22;12308;50.948;4.706;2022-12-11T06:15:22;4.20;99.90
24146;DHT22;12308;50.948;4.706;2022-12-11T06:17:47;4.00;99.90
24146;DHT22;12308;50.948;4.706;2022-12-11T06:20:13;3.80;99.90
24146;DHT22;12308;50.948;4.706;2022-12-11T06:22:39;3.90;99.90
24146;DHT22;12308;50.948;4.706;2022-12-11T06:25:05;4.00;99.90
24146;DHT22;12308;50.948;4.706;2022-12-11T06:27:30;4.10;99.90
24146;DHT22;12308;50.948;4.706;2022-12-11T06:29:56;4.00;99.90
24146;DHT22;12308;50.948;4.706;2022-12-11T06:32:22;4.10;99.90
24146;DHT22;12308;50.948;4.706;2022-12-11T06:34:47;4.00;99.90
24146;DHT22;12308;50.948;4.706;2022-12-11T06:37:13;3.80;99.90
24146;DHT22;12308;50.948;4.706;2022-12-11T06:39:39;3.80;99.90
24146;DHT22;12308;50.948;4.706;2022-12-11T06:42:04;3.80;99.90
24146;DHT22;12308;50.948;4.706;2022-12-11T06:44:30;3.80;99.90
24146;DHT22;12308;50.948;4.706;2022-12-11T06:46:55;3.80;99.90
24146;DHT22;12308;50.948;4.706;2022-12-11T06:49:21;3.70;99.90
24146;DHT22;12308;50.948;4.706;2022-12-11T06:51:47;3.80;99.90
24146;DHT22;12308;50.948;4.706;2022-12-11T06:54:12;3.70;99.90
24146;DHT22;12308;50.948;4.706;2022-12-11T06:56:38;3.70;99.90
24146;DHT22;12308;50.948;4.706;2022-12-11T06:59:04;3.80;99.90
24146;DHT22;12308;50.948;4.706;2022-12-11T07:01:29;3.80;99.90
24146;DHT22;12308;50.948;4.706;2022-12-11T07:03:57;3.90;99.90
24146;DHT22;12308;50.948;4.706;2022-12-11T07:06:24;3.90;99.90
24146;DHT22;12308;50.948;4.706;2022-12-11T07:08:50;3.90;99.90
24146;DHT22;12308;50.948;4.706;2022-12-11T07:11:17;3.90;99.90
24146;DHT22;12308;50.948;4.706;2022-12-11T07:13:43;4.00;99.90
24146;DHT22;12308;50.948;4.706;2022-12-11T07:16:11;4.00;99.90
24146;DHT22;12308;50.948;4.706;2022-12-11T07:18:39;4.00;99.90
24146;DHT22;12308;50.948;4.706;2022-12-11T07:21:06;4.10;99.90
24146;DHT22;12308;50.948;4.706;2022-12-11T07:23:33;4.20;99.90
24146;DHT22;12308;50.948;4.706;2022-12-11T07:26:06;4.20;99.90
24146;DHT22;12308;50.948;4.706;2022-12-11T07:28:32;4.00;99.90
24146;DHT22;12308;50.948;4.706;2022-12-11T07:30:59;4.10;99.90
24146;DHT22;12308;50.948;4.706;2022-12-11T07:33:24;4.10;99.90
24146;DHT22;12308;50.948;4.706;2022-12-11T07:35:50;4.10;99.90
24146;DHT22;12308;50.948;4.706;2022-12-11T07:38:16;4.10;99.90
24146;DHT22;12308;50.948;4.706;2022-12-11T07:40:41;4.10;99.90
24146;DHT22;12308;50.948;4.706;2022-12-11T07:43:07;4.10;99.90
24146;DHT22;12308;50.948;4.706;2022-12-11T07:45:33;4.20;99.90
24146;DHT22;12308;50.948;4.706;2022-12-11T07:47:58;4.20;99.90
24146;DHT22;12308;50.948;4.706;2022-12-11T07:50:24;4.10;99.90
24146;DHT22;12308;50.948;4.706;2022-12-11T07:52:49;4.20;99.90
24146;DHT22;12308;50.948;4.706;2022-12-11T07:55:15;4.10;99.90
24146;DHT22;12308;50.948;4.706;2022-12-11T07:57:41;4.10;99.90
24146;DHT22;12308;50.948;4.706;2022-12-11T08:00:07;4.10;99.90
24146;DHT22;12308;50.948;4.706;2022-12-11T08:02:32;4.10;99.90
24146;DHT22;12308;50.948;4.706;2022-12-11T08:04:58;4.10;99.90
24146;DHT22;12308;50.948;4.706;2022-12-11T08:07:24;4.20;99.90
24146;DHT22;12308;50.948;4.706;2022-12-11T08:09:49;4.10;99.90
24146;DHT22;12308;50.948;4.706;2022-12-11T08:12:15;4.00;99.90
24146;DHT22;12308;50.948;4.706;2022-12-11T08:14:40;4.10;99.90
24146;DHT22;12308;50.948;4.706;2022-12-11T08:17:06;4.20;99.90
24146;DHT22;12308;50.948;4.706;2022-12-11T08:19:32;4.30;99.90
24146;DHT22;12308;50.948;4.706;2022-12-11T08:21:57;4.30;99.90
24146;DHT22;12308;50.948;4.706;2022-12-11T08:24:23;4.30;99.90
24146;DHT22;12308;50.948;4.706;2022-12-11T08:26:49;4.20;99.90
24146;DHT22;12308;50.948;4.706;2022-12-11T08:29:14;4.30;99.90
24146;DHT22;12308;50.948;4.706;2022-12-11T08:31:40;4.20;99.90
24146;DHT22;12308;50.948;4.706;2022-12-11T08:34:06;4.30;99.90
24146;DHT22;12308;50.948;4.706;2022-12-11T08:36:32;4.30;99.90
24146;DHT22;12308;50.948;4.706;2022-12-11T08:38:57;4.30;99.90
24146;DHT22;12308;50.948;4.706;2022-12-11T08:41:26;4.10;99.90
24146;DHT22;12308;50.948;4.706;2022-12-11T08:43:53;4.20;99.90
24146;DHT22;12308;50.948;4.706;2022-12-11T08:46:21;4.20;99.90
24146;DHT22;12308;50.948;4.706;2022-12-11T08:48:51;4.40;99.90
24146;DHT22;12308;50.948;4.706;2022-12-11T08:51:19;4.20;99.90
24146;DHT22;12308;50.948;4.706;2022-12-11T08:53:45;4.10;99.90
24146;DHT22;12308;50.948;4.706;2022-12-11T08:56:13;4.10;99.90
24146;DHT22;12308;50.948;4.706;2022-12-11T08:58:39;4.00;99.90
24146;DHT22;12308;50.948;4.706;2022-12-11T09:03:37;4.30;99.90
24146;DHT22;12308;50.948;4.706;2022-12-11T09:06:09;4.20;99.90
24146;DHT22;12308;50.948;4.706;2022-12-11T09:08:35;4.20;99.90
24146;DHT22;12308;50.948;4.706;2022-12-11T09:11:06;4.20;99.90
24146;DHT22;12308;50.948;4.706;2022-12-11T09:13:32;4.20;99.90
24146;DHT22;12308;50.948;4.706;2022-12-11T09:15:58;4.30;99.90
24146;DHT22;12308;50.948;4.706;2022-12-11T09:18:24;4.30;99.90
24146;DHT22;12308;50.948;4.706;2022-12-11T09:21:10;4.20;99.90
24146;DHT22;12308;50.948;4.706;2022-12-11T09:23:36;4.30;99.90
24146;DHT22;12308;50.948;4.706;2022-12-11T09:26:06;4.40;99.90
24146;DHT22;12308;50.948;4.706;2022-12-11T09:28:33;4.40;99.90
24146;DHT22;12308;50.948;4.706;2022-12-11T09:30:59;4.30;99.90
24146;DHT22;12308;50.948;4.706;2022-12-11T09:33:24;4.40;99.90
24146;DHT22;12308;50.948;4.706;2022-12-11T09:36:00;4.40;99.90
24146;DHT22;12308;50.948;4.706;2022-12-11T09:38:27;4.50;99.90
24146;DHT22;12308;50.948;4.706;2022-12-11T09:40:53;4.40;99.90
24146;DHT22;12308;50.948;4.706;2022-12-11T09:43:35;4.50;99.90
24146;DHT22;12308;50.948;4.706;2022-12-11T09:46:04;4.50;99.90
24146;DHT22;12308;50.948;4.706;2022-12-11T09:48:32;4.40;99.90
24146;DHT22;12308;50.948;4.706;2022-12-11T09:51:05;4.30;99.90
24146;DHT22;12308;50.948;4.706;2022-12-11T09:53:35;4.50;99.90
24146;DHT22;12308;50.948;4.706;2022-12-11T10:06:41;4.50;99.90
24146;DHT22;12308;50.948;4.706;2022-12-11T10:09:18;4.50;99.90
24146;DHT22;12308;50.948;4.706;2022-12-11T10:12:01;4.60;99.90
24146;DHT22;12308;50.948;4.706;2022-12-11T10:17:21;4.50;99.90
24146;DHT22;12308;50.948;4.706;2022-12-11T10:19:49;4.40;99.90
24146;DHT22;12308;50.948;4.706;2022-12-11T10:22:22;4.40;99.90
24146;DHT22;12308;50.948;4.706;2022-12-11T10:25:06;4.50;99.90
24146;DHT22;12308;50.948;4.706;2022-12-11T10:27:34;4.50;99.90
24146;DHT22;12308;50.948;4.706;2022-12-11T10:30:25;4.70;99.90
24146;DHT22;12308;50.948;4.706;2022-12-11T10:32:58;4.40;99.90
24146;DHT22;12308;50.948;4.706;2022-12-11T10:35:35;4.60;99.90
24146;DHT22;12308;50.948;4.706;2022-12-11T10:40:43;4.90;99.90
24146;DHT22;12308;50.948;4.706;2022-12-11T10:43:09;4.80;99.90
24146;DHT22;12308;50.948;4.706;2022-12-11T10:45:35;5.00;99.90
24146;DHT22;12308;50.948;4.706;2022-12-11T10:48:08;5.00;99.90
24146;DHT22;12308;50.948;4.706;2022-12-11T10:50:35;5.10;99.90
24146;DHT22;12308;50.948;4.706;2022-12-11T10:53:01;5.10;99.90
24146;DHT22;12308;50.948;4.706;2022-12-11T10:55:43;5.10;99.90
24146;DHT22;12308;50.948;4.706;2022-12-11T10:58:19;4.90;99.90
24146;DHT22;12308;50.948;4.706;2022-12-11T11:01:06;4.80;99.90
24146;DHT22;12308;50.948;4.706;2022-12-11T11:03:33;5.00;99.90
24146;DHT22;12308;50.948;4.706;2022-12-11T11:06:17;4.80;99.90
24146;DHT22;12308;50.948;4.706;2022-12-11T11:08:46;4.80;99.90
24146;DHT22;12308;50.948;4.706;2022-12-11T11:13:43;4.80;99.90
24146;DHT22;12308;50.948;4.706;2022-12-11T11:16:12;4.70;99.90
24146;DHT22;12308;50.948;4.706;2022-12-11T11:18:40;4.40;99.90
24146;DHT22;12308;50.948;4.706;2022-12-11T11:21:15;4.30;99.90
24146;DHT22;12308;50.948;4.706;2022-12-11T11:23:43;4.30;99.90
24146;DHT22;12308;50.948;4.706;2022-12-11T11:26:10;4.40;99.90
24146;DHT22;12308;50.948;4.706;2022-12-11T11:28:41;4.50;99.90
24146;DHT22;12308;50.948;4.706;2022-12-11T11:31:12;4.80;99.90
24146;DHT22;12308;50.948;4.706;2022-12-11T11:33:57;4.80;99.90
24146;DHT22;12308;50.948;4.706;2022-12-11T11:36:26;4.80;99.90
24146;DHT22;12308;50.948;4.706;2022-12-11T11:41:36;4.90;99.90
24146;DHT22;12308;50.948;4.706;2022-12-11T11:44:08;4.90;99.90
24146;DHT22;12308;50.948;4.706;2022-12-11T11:57:54;5.20;99.90
24146;DHT22;12308;50.948;4.706;2022-12-11T12:00:23;5.20;99.90
24146;DHT22;12308;50.948;4.706;2022-12-11T12:02:54;5.40;99.90
24146;DHT22;12308;50.948;4.706;2022-12-11T12:05:26;5.10;99.90
24146;DHT22;12308;50.948;4.706;2022-12-11T12:08:13;4.80;99.90
24146;DHT22;12308;50.948;4.706;2022-12-11T12:25:41;4.80;99.90
24146;DHT22;12308;50.948;4.706;2022-12-11T12:34:03;4.70;99.90
24146;DHT22;12308;50.948;4.706;2022-12-11T12:36:33;4.60;99.90
24146;DHT22;12308;50.948;4.706;2022-12-11T12:47:42;4.50;99.90
24146;DHT22;12308;50.948;4.706;2022-12-11T12:50:15;4.40;99.90
24146;DHT22;12308;50.948;4.706;2022-12-11T12:52:42;4.40;99.90
24146;DHT22;12308;50.948;4.706;2022-12-11T12:55:26;4.30;99.90
24146;DHT22;12308;50.948;4.706;2022-12-11T12:57:56;4.40;99.90
24146;DHT22;12308;50.948;4.706;2022-12-11T13:00:32;4.50;99.90
24146;DHT22;12308;50.948;4.706;2022-12-11T13:03:21;4.60;99.90
24146;DHT22;12308;50.948;4.706;2022-12-11T13:05:59;4.70;99.90
24146;DHT22;12308;50.948;4.706;2022-12-11T13:08:29;4.80;99.90
24146;DHT22;12308;50.948;4.706;2022-12-11T13:11:05;5.00;99.90
24146;DHT22;12308;50.948;4.706;2022-12-11T13:16:07;5.30;99.90
24146;DHT22;12308;50.948;4.706;2022-12-11T13:18:37;5.50;99.90
24146;DHT22;12308;50.948;4.706;2022-12-11T13:21:36;5.50;99.90
24146;DHT22;12308;50.948;4.706;2022-12-11T13:26:47;5.50;99.90
24146;DHT22;12308;50.948;4.706;2022-12-11T13:29:34;5.40;99.90
24146;DHT22;12308;50.948;4.706;2022-12-11T13:34:33;5.30;99.90
24146;DHT22;12308;50.948;4.706;2022-12-11T13:37:01;5.20;99.90
24146;DHT22;12308;50.948;4.706;2022-12-11T13:39:38;5.20;99.90
24146;DHT22;12308;50.948;4.706;2022-12-11T13:42:07;5.30;99.90
24146;DHT22;12308;50.948;4.706;2022-12-11T13:44:40;5.20;99.90
24146;DHT22;12308;50.948;4.706;2022-12-11T13:47:13;5.00;99.90
24146;DHT22;12308;50.948;4.706;2022-12-11T13:49:42;5.10;99.90
24146;DHT22;12308;50.948;4.706;2022-12-11T13:52:20;4.90;99.90
24146;DHT22;12308;50.948;4.706;2022-12-11T13:54:49;4.90;99.90
24146;DHT22;12308;50.948;4.706;2022-12-11T13:57:21;4.90;99.90
24146;DHT22;12308;50.948;4.706;2022-12-11T13:59:50;5.00;99.90
24146;DHT22;12308;50.948;4.706;2022-12-11T14:02:24;4.90;99.90
24146;DHT22;12308;50.948;4.706;2022-12-11T14:04:56;4.80;99.90
24146;DHT22;12308;50.948;4.706;2022-12-11T14:07:29;4.90;99.90
24146;DHT22;12308;50.948;4.706;2022-12-11T14:10:04;4.90;99.90
24146;DHT22;12308;50.948;4.706;2022-12-11T14:12:31;4.90;99.90
24146;DHT22;12308;50.948;4.706;2022-12-11T14:14:58;4.90;99.90
24146;DHT22;12308;50.948;4.706;2022-12-11T14:17:31;4.80;99.90
24146;DHT22;12308;50.948;4.706;2022-12-11T14:20:00;5.00;99.90
24146;DHT22;12308;50.948;4.706;2022-12-11T14:22:28;5.10;99.90
24146;DHT22;12308;50.948;4.706;2022-12-11T14:25:00;4.90;99.90
24146;DHT22;12308;50.948;4.706;2022-12-11T14:27:28;5.10;99.90
24146;DHT22;12308;50.948;4.706;2022-12-11T14:29:54;5.00;99.90
24146;DHT22;12308;50.948;4.706;2022-12-11T14:32:37;5.10;99.90
24146;DHT22;12308;50.948;4.706;2022-12-11T14:35:24;5.00;99.90
24146;DHT22;12308;50.948;4.706;2022-12-11T14:37:51;4.80;99.90
24146;DHT22;12308;50.948;4.706;2022-12-11T14:40:20;4.70;99.90
24146;DHT22;12308;50.948;4.706;2022-12-11T14:42:53;4.60;99.90
24146;DHT22;12308;50.948;4.706;2022-12-11T14:45:32;4.60;99.90
24146;DHT22;12308;50.948;4.706;2022-12-11T14:48:00;4.50;99.90
24146;DHT22;12308;50.948;4.706;2022-12-11T14:50:37;4.60;99.90
24146;DHT22;12308;50.948;4.706;2022-12-11T14:53:12;4.60;99.90
24146;DHT22;12308;50.948;4.706;2022-12-11T14:55:39;4.70;99.90
24146;DHT22;12308;50.948;4.706;2022-12-11T14:58:24;4.70;99.90
24146;DHT22;12308;50.948;4.706;2022-12-11T15:03:23;4.60;99.90
24146;DHT22;12308;50.948;4.706;2022-12-11T15:05:52;4.60;99.90
24146;DHT22;12308;50.948;4.706;2022-12-11T15:08:20;4.50;99.90
24146;DHT22;12308;50.948;4.706;2022-12-11T15:11:11;4.50;99.90
24146;DHT22;12308;50.948;4.706;2022-12-11T15:13:52;4.40;99.90
24146;DHT22;12308;50.948;4.706;2022-12-11T15:16:18;4.30;99.90
24146;DHT22;12308;50.948;4.706;2022-12-11T15:18:47;4.30;99.90
24146;DHT22;12308;50.948;4.706;2022-12-11T15:21:13;4.20;99.90
24146;DHT22;12308;50.948;4.706;2022-12-11T15:23:50;4.10;99.90
24146;DHT22;12308;50.948;4.706;2022-12-11T15:26:18;4.10;99.90
24146;DHT22;12308;50.948;4.706;2022-12-11T15:28:44;4.10;99.90
24146;DHT22;12308;50.948;4.706;2022-12-11T15:31:25;4.20;99.90
24146;DHT22;12308;50.948;4.706;2022-12-11T15:33:52;4.20;99.90
24146;DHT22;12308;50.948;4.706;2022-12-11T15:36:34;4.20;99.90
24146;DHT22;12308;50.948;4.706;2022-12-11T15:39:02;4.20;99.90
24146;DHT22;12308;50.948;4.706;2022-12-11T15:41:28;4.20;99.90
24146;DHT22;12308;50.948;4.706;2022-12-11T15:44:00;4.10;99.90
24146;DHT22;12308;50.948;4.706;2022-12-11T15:46:26;4.00;99.90
24146;DHT22;12308;50.948;4.706;2022-12-11T15:48:52;4.00;99.90
24146;DHT22;12308;50.948;4.706;2022-12-11T15:51:17;4.10;99.90
24146;DHT22;12308;50.948;4.706;2022-12-11T15:53:43;4.00;99.90
24146;DHT22;12308;50.948;4.706;2022-12-11T15:56:14;4.10;99.90
24146;DHT22;12308;50.948;4.706;2022-12-11T15:58:40;4.10;99.90
24146;DHT22;12308;50.948;4.706;2022-12-11T16:01:07;4.20;99.90
24146;DHT22;12308;50.948;4.706;2022-12-11T16:03:33;4.20;99.90
24146;DHT22;12308;50.948;4.706;2022-12-11T16:05:58;4.20;99.90
24146;DHT22;12308;50.948;4.706;2022-12-11T16:08:24;4.20;99.90
24146;DHT22;12308;50.948;4.706;2022-12-11T16:10:51;4.30;99.90
24146;DHT22;12308;50.948;4.706;2022-12-11T16:13:17;4.30;99.90
24146;DHT22;12308;50.948;4.706;2022-12-11T16:15:45;4.20;99.90
24146;DHT22;12308;50.948;4.706;2022-12-11T16:18:14;4.40;99.90
24146;DHT22;12308;50.948;4.706;2022-12-11T16:20:40;4.40;99.90
24146;DHT22;12308;50.948;4.706;2022-12-11T16:23:07;4.30;99.90
24146;DHT22;12308;50.948;4.706;2022-12-11T16:25:33;4.30;99.90
24146;DHT22;12308;50.948;4.706;2022-12-11T16:28:00;4.10;99.90
24146;DHT22;12308;50.948;4.706;2022-12-11T16:30:27;4.20;99.90
24146;DHT22;12308;50.948;4.706;2022-12-11T16:32:53;4.30;99.90
24146;DHT22;12308;50.948;4.706;2022-12-11T16:35:20;4.30;99.90
24146;DHT22;12308;50.948;4.706;2022-12-11T16:37:50;4.10;99.90
24146;DHT22;12308;50.948;4.706;2022-12-11T16:40:17;4.10;99.90
24146;DHT22;12308;50.948;4.706;2022-12-11T16:42:43;4.00;99.90
24146;DHT22;12308;50.948;4.706;2022-12-11T16:45:15;4.00;99.90
24146;DHT22;12308;50.948;4.706;2022-12-11T16:47:41;4.00;99.90
24146;DHT22;12308;50.948;4.706;2022-12-11T16:50:07;4.00;99.90
24146;DHT22;12308;50.948;4.706;2022-12-11T16:52:33;4.00;99.90
24146;DHT22;12308;50.948;4.706;2022-12-11T16:54:59;4.10;99.90
24146;DHT22;12308;50.948;4.706;2022-12-11T16:57:25;4.10;99.90
24146;DHT22;12308;50.948;4.706;2022-12-11T16:59:51;4.10;99.90
24146;DHT22;12308;50.948;4.706;2022-12-11T17:02:17;4.00;99.90
24146;DHT22;12308;50.948;4.706;2022-12-11T17:04:42;3.90;99.90
24146;DHT22;12308;50.948;4.706;2022-12-11T17:07:08;3.90;99.90
24146;DHT22;12308;50.948;4.706;2022-12-11T17:09:34;3.80;99.90
24146;DHT22;12308;50.948;4.706;2022-12-11T17:12:00;3.90;99.90
24146;DHT22;12308;50.948;4.706;2022-12-11T17:14:26;3.90;99.90
24146;DHT22;12308;50.948;4.706;2022-12-11T17:16:52;4.00;99.90
24146;DHT22;12308;50.948;4.706;2022-12-11T17:19:17;3.90;99.90
24146;DHT22;12308;50.948;4.706;2022-12-11T17:21:43;4.00;99.90
24146;DHT22;12308;50.948;4.706;2022-12-11T17:24:10;4.00;99.90
24146;DHT22;12308;50.948;4.706;2022-12-11T17:26:36;3.90;99.90
24146;DHT22;12308;50.948;4.706;2022-12-11T17:29:02;4.00;99.90
24146;DHT22;12308;50.948;4.706;2022-12-11T17:31:28;4.00;99.90
24146;DHT22;12308;50.948;4.706;2022-12-11T17:33:54;4.00;99.90